createdAt,value
2019-06-26T00:00:27.510Z,78.60
2019-06-26T00:02:57.183Z,78.20
2019-06-26T00:05:26.792Z,78.30
2019-06-26T00:07:56.339Z,78.60
2019-06-26T00:10:25.879Z,79.30
2019-06-26T00:12:55.425Z,80.00
2019-06-26T00:15:25.115Z,80.30
2019-06-26T00:17:54.674Z,80.50
2019-06-26T00:20:25.254Z,80.60
2019-06-26T00:22:54.883Z,81.40
2019-06-26T00:25:24.423Z,82.00
2019-06-26T00:27:54.036Z,82.00
2019-06-26T00:30:23.570Z,81.50
2019-06-26T00:32:53.239Z,81.50
2019-06-26T00:35:22.833Z,81.50
2019-06-26T00:37:52.444Z,81.90
2019-06-26T00:40:22.000Z,82.20
2019-06-26T00:42:51.569Z,81.80
2019-06-26T00:45:21.305Z,81.50
2019-06-26T00:47:50.927Z,82.10
2019-06-26T00:50:20.710Z,82.20
2019-06-26T00:52:50.441Z,82.10
2019-06-26T00:55:19.984Z,82.40
2019-06-26T00:57:49.650Z,83.30
2019-06-26T01:00:20.907Z,83.90
2019-06-26T01:02:51.691Z,84.00
2019-06-26T01:05:21.302Z,84.40
2019-06-26T01:07:50.837Z,84.60
2019-06-26T01:10:20.547Z,85.10
2019-06-26T01:12:50.090Z,85.20
2019-06-26T01:15:19.843Z,85.00
2019-06-26T01:17:49.371Z,84.90
2019-06-26T01:20:18.994Z,85.40
2019-06-26T01:22:48.533Z,85.30
2019-06-26T01:25:18.327Z,85.70
2019-06-26T01:27:47.853Z,85.80
2019-06-26T01:30:18.074Z,85.70
2019-06-26T01:32:47.676Z,85.80
2019-06-26T01:35:17.223Z,85.90
2019-06-26T01:37:46.910Z,86.00
2019-06-26T01:40:16.696Z,86.10
2019-06-26T01:42:46.238Z,86.10
2019-06-26T01:45:15.991Z,86.50
2019-06-26T01:47:45.977Z,86.20
2019-06-26T01:50:15.655Z,86.10
2019-06-26T01:52:45.282Z,87.00
2019-06-26T01:55:15.926Z,87.00
2019-06-26T01:57:45.460Z,87.20
2019-06-26T02:00:15.756Z,87.10
2019-06-26T02:02:45.365Z,86.80
2019-06-26T02:05:15.042Z,87.00
2019-06-26T02:07:44.755Z,87.60
2019-06-26T02:10:15.990Z,87.40
2019-06-26T02:12:45.657Z,87.80
2019-06-26T02:15:15.625Z,88.40
2019-06-26T02:17:45.235Z,88.80
2019-06-26T02:20:14.982Z,88.50
2019-06-26T02:22:44.537Z,88.40
2019-06-26T02:25:14.221Z,88.80
2019-06-26T02:27:43.760Z,88.60
2019-06-26T02:30:13.883Z,88.50
2019-06-26T02:32:43.410Z,88.40
2019-06-26T02:35:13.394Z,88.20
2019-06-26T02:37:43.003Z,88.60
2019-06-26T02:40:12.987Z,88.40
2019-06-26T02:42:42.543Z,89.00
2019-06-26T02:45:12.344Z,89.60
2019-06-26T02:47:41.933Z,89.40
2019-06-26T02:50:11.809Z,89.30
2019-06-26T02:52:41.719Z,89.30
2019-06-26T02:55:11.503Z,89.20
2019-06-26T02:57:41.052Z,89.10
2019-06-26T03:00:10.733Z,89.20
2019-06-26T03:02:40.359Z,88.90
2019-06-26T03:05:10.161Z,89.00
2019-06-26T03:07:39.704Z,89.40
2019-06-26T03:10:10.576Z,89.60
2019-06-26T03:12:40.162Z,89.70
2019-06-26T03:15:10.362Z,89.70
2019-06-26T03:17:54.263Z,90.20
2019-06-26T03:20:11.606Z,90.30
2019-06-26T03:22:41.206Z,90.20
2019-06-26T03:25:10.746Z,90.10
2019-06-26T03:27:40.292Z,90.30
2019-06-26T03:30:10.495Z,90.50
2019-06-26T03:32:40.059Z,90.50
2019-06-26T03:35:10.023Z,90.50
2019-06-26T03:37:39.593Z,90.60
2019-06-26T03:40:10.351Z,90.80
2019-06-26T03:42:39.916Z,90.60
2019-06-26T03:45:24.455Z,90.70
2019-06-26T03:47:40.700Z,90.60
2019-06-26T03:50:10.880Z,90.50
2019-06-26T03:52:40.495Z,90.60
2019-06-26T03:55:10.480Z,90.30
2019-06-26T03:57:40.027Z,90.30
2019-06-26T04:00:10.125Z,90.00
2019-06-26T04:02:39.662Z,89.90
2019-06-26T04:05:09.441Z,89.90
2019-06-26T04:07:39.073Z,90.00
2019-06-26T04:10:08.842Z,90.00
2019-06-26T04:12:38.451Z,90.00
2019-06-26T04:15:08.657Z,89.90
2019-06-26T04:17:38.254Z,90.10
2019-06-26T04:20:08.945Z,89.70
2019-06-26T04:22:38.553Z,89.70
2019-06-26T04:25:08.442Z,90.10
2019-06-26T04:27:38.029Z,89.70
2019-06-26T04:30:10.632Z,88.80
2019-06-26T04:32:40.350Z,88.60
2019-06-26T04:35:10.450Z,88.10
2019-06-26T04:37:40.003Z,87.80
2019-06-26T04:40:10.385Z,86.30
2019-06-26T04:42:39.923Z,86.10
2019-06-26T04:45:09.802Z,85.90
2019-06-26T04:47:39.553Z,85.60
2019-06-26T04:50:09.722Z,84.40
2019-06-26T04:52:39.336Z,84.40
2019-06-26T04:55:09.712Z,83.60
2019-06-26T04:57:39.313Z,82.60
2019-06-26T05:00:09.990Z,82.70
2019-06-26T05:02:39.526Z,82.70
2019-06-26T05:05:10.804Z,82.70
2019-06-26T05:07:40.417Z,83.00
2019-06-26T05:10:10.115Z,80.90
2019-06-26T05:12:39.636Z,79.20
2019-06-26T05:15:09.915Z,78.90
2019-06-26T05:17:39.520Z,78.40
2019-06-26T05:20:10.860Z,77.60
2019-06-26T05:22:40.468Z,77.20
2019-06-26T05:25:11.528Z,78.10
2019-06-26T05:27:41.381Z,76.90
2019-06-26T05:30:12.214Z,76.20
2019-06-26T05:32:41.822Z,75.90
2019-06-26T05:35:11.852Z,76.20
2019-06-26T05:37:42.059Z,76.20
2019-06-26T05:40:12.811Z,75.30
2019-06-26T05:42:42.369Z,75.00
2019-06-26T05:45:12.940Z,75.00
2019-06-26T05:47:42.481Z,74.20
2019-06-26T05:50:12.767Z,73.60
2019-06-26T05:52:43.163Z,74.40
2019-06-26T05:55:14.811Z,73.00
2019-06-26T05:57:48.192Z,72.50
2019-06-26T06:00:17.408Z,71.10
2019-06-26T06:02:47.069Z,70.90
2019-06-26T06:05:17.258Z,70.50
2019-06-26T06:07:46.787Z,70.30
2019-06-26T06:10:16.873Z,70.80
2019-06-26T06:12:46.539Z,70.60
2019-06-26T06:15:17.979Z,69.60
2019-06-26T06:17:47.560Z,70.30
2019-06-26T06:20:23.107Z,70.10
2019-06-26T06:22:52.640Z,70.20
2019-06-26T06:25:22.670Z,69.50
2019-06-26T06:27:52.206Z,69.90
2019-06-26T06:30:22.677Z,69.40
2019-06-26T06:32:52.289Z,69.80
2019-06-26T06:35:21.884Z,70.50
2019-06-26T06:37:51.516Z,69.80
2019-06-26T06:40:21.669Z,70.20
2019-06-26T06:42:51.340Z,70.30
2019-06-26T06:45:22.711Z,70.80
2019-06-26T06:47:52.417Z,70.40
2019-06-26T06:50:22.010Z,70.10
2019-06-26T06:52:51.625Z,71.10
2019-06-26T06:55:21.244Z,70.40
2019-06-26T06:57:51.581Z,69.40
2019-06-26T07:00:21.457Z,69.30
2019-06-26T07:02:51.055Z,69.80
2019-06-26T07:05:20.756Z,70.30
2019-06-26T07:07:50.458Z,70.00
2019-06-26T07:10:20.868Z,70.10
2019-06-26T07:12:50.516Z,70.70
2019-06-26T07:15:20.396Z,69.80
2019-06-26T07:17:49.975Z,70.40
2019-06-26T07:20:20.020Z,68.20
2019-06-26T07:22:49.559Z,69.10
2019-06-26T07:25:19.161Z,69.40
2019-06-26T07:27:48.704Z,68.70
2019-06-26T07:30:18.475Z,68.20
2019-06-26T07:32:48.017Z,68.10
2019-06-26T07:35:17.624Z,68.60
2019-06-26T07:37:47.168Z,69.50
2019-06-26T07:40:17.333Z,70.00
2019-06-26T07:42:47.940Z,69.70
2019-06-26T07:45:17.650Z,69.20
2019-06-26T07:47:47.176Z,68.90
2019-06-26T07:50:16.962Z,69.40
2019-06-26T07:52:46.561Z,68.90
2019-06-26T07:55:16.439Z,69.20
2019-06-26T07:57:45.981Z,68.10
2019-06-26T08:00:16.248Z,68.60
2019-06-26T08:02:45.796Z,67.40
2019-06-26T08:05:15.737Z,68.00
2019-06-26T08:07:45.319Z,68.10
2019-06-26T08:10:15.102Z,68.70
2019-06-26T08:12:44.701Z,68.80
2019-06-26T08:15:14.374Z,68.30
2019-06-26T08:17:59.091Z,66.20
2019-06-26T08:20:16.926Z,65.90
2019-06-26T08:22:47.442Z,65.20
2019-06-26T08:25:17.318Z,65.60
2019-06-26T08:27:46.916Z,66.00
2019-06-26T08:30:17.906Z,65.40
2019-06-26T08:32:47.442Z,66.10
2019-06-26T08:35:17.134Z,64.80
2019-06-26T08:37:46.676Z,64.20
2019-06-26T08:40:16.759Z,64.10
2019-06-26T08:42:46.436Z,65.40
2019-06-26T08:45:16.365Z,64.30
2019-06-26T08:47:45.975Z,63.80
2019-06-26T08:50:15.849Z,62.40
2019-06-26T08:52:45.531Z,61.40
2019-06-26T08:55:15.414Z,62.30
2019-06-26T08:57:44.953Z,62.40
2019-06-26T09:00:16.339Z,60.80
2019-06-26T09:02:45.874Z,60.10
2019-06-26T09:05:15.563Z,60.70
2019-06-26T09:07:45.125Z,60.60
2019-06-26T09:10:15.018Z,59.50
2019-06-26T09:12:44.625Z,59.70
2019-06-26T09:15:14.234Z,59.60
2019-06-26T09:17:43.861Z,58.70
2019-06-26T09:20:13.661Z,59.20
2019-06-26T09:22:43.200Z,59.10
2019-06-26T09:25:21.539Z,58.70
2019-06-26T09:27:43.968Z,59.30
2019-06-26T09:30:13.937Z,59.00
2019-06-26T09:32:43.492Z,59.40
2019-06-26T09:35:13.164Z,58.30
2019-06-26T09:37:42.730Z,59.30
2019-06-26T09:40:12.831Z,58.80
2019-06-26T09:42:42.371Z,58.30
2019-06-26T09:45:12.151Z,57.60
2019-06-26T09:47:41.746Z,56.90
2019-06-26T09:50:11.677Z,57.20
2019-06-26T09:52:41.246Z,57.20
2019-06-26T09:55:11.020Z,56.80
2019-06-26T09:57:40.638Z,56.80
2019-06-26T10:00:13.189Z,56.30
2019-06-26T10:02:42.819Z,56.20
2019-06-26T10:05:13.188Z,55.20
2019-06-26T10:07:42.784Z,55.60
2019-06-26T10:10:13.046Z,56.10
2019-06-26T10:12:42.665Z,54.80
2019-06-26T10:15:12.637Z,55.10
2019-06-26T10:17:42.317Z,54.50
2019-06-26T10:20:12.598Z,53.90
2019-06-26T10:22:42.209Z,53.70
2019-06-26T10:25:12.375Z,53.60
2019-06-26T10:27:41.992Z,53.20
2019-06-26T10:30:12.097Z,53.50
2019-06-26T10:32:41.776Z,54.20
2019-06-26T10:35:11.659Z,54.00
2019-06-26T10:37:41.269Z,52.60
2019-06-26T10:40:11.165Z,53.70
2019-06-26T10:42:40.702Z,52.40
2019-06-26T10:45:10.994Z,52.80
2019-06-26T10:47:40.598Z,51.70
2019-06-26T10:50:10.642Z,52.00
2019-06-26T10:52:40.183Z,51.00
2019-06-26T10:55:10.278Z,51.70
2019-06-26T10:57:39.810Z,52.60
2019-06-26T11:00:11.237Z,51.80
2019-06-26T11:02:40.760Z,50.90
2019-06-26T11:05:11.043Z,51.40
2019-06-26T11:07:40.583Z,51.20
2019-06-26T11:10:10.666Z,49.30
2019-06-26T11:12:40.215Z,48.10
2019-06-26T11:15:10.677Z,48.20
2019-06-26T11:17:40.273Z,47.60
2019-06-26T11:20:11.831Z,48.10
2019-06-26T11:22:41.449Z,48.10
2019-06-26T11:25:11.618Z,49.50
2019-06-26T11:27:41.402Z,49.60
2019-06-26T11:30:12.043Z,48.70
2019-06-26T11:32:42.457Z,48.30
2019-06-26T11:35:12.144Z,48.70
2019-06-26T11:37:41.822Z,48.40
2019-06-26T11:40:11.810Z,49.00
2019-06-26T11:42:41.489Z,48.50
2019-06-26T11:45:11.388Z,48.20
2019-06-26T11:47:40.916Z,47.80
2019-06-26T11:50:11.412Z,47.50
2019-06-26T11:52:42.064Z,47.40
2019-06-26T11:55:13.803Z,46.50
2019-06-26T11:57:43.419Z,46.10
2019-06-26T12:00:18.952Z,47.00
2019-06-26T12:02:48.641Z,47.00
2019-06-26T12:05:18.518Z,46.90
2019-06-26T12:07:48.138Z,46.10
2019-06-26T12:10:19.269Z,45.80
2019-06-26T12:12:48.961Z,46.80
2019-06-26T12:15:20.983Z,45.30
2019-06-26T12:17:50.619Z,46.00
2019-06-26T12:20:20.603Z,45.50
2019-06-26T12:22:50.167Z,45.40
2019-06-26T12:25:19.813Z,45.30
2019-06-26T12:27:49.367Z,45.00
2019-06-26T12:30:19.005Z,45.20
2019-06-26T12:33:02.928Z,44.80
2019-06-26T12:35:25.505Z,45.00
2019-06-26T12:37:55.089Z,45.10
2019-06-26T12:40:24.746Z,45.20
2019-06-26T12:42:55.725Z,44.00
2019-06-26T12:45:26.739Z,44.20
2019-06-26T12:47:56.345Z,43.10
2019-06-26T12:50:35.347Z,42.20
2019-06-26T12:52:57.372Z,42.00
2019-06-26T12:55:26.950Z,42.70
2019-06-26T12:58:11.881Z,42.30
2019-06-26T13:00:27.708Z,42.50
2019-06-26T13:02:57.246Z,42.20
2019-06-26T13:05:26.777Z,41.60
2019-06-26T13:07:56.334Z,40.30
2019-06-26T13:10:26.025Z,39.50
2019-06-26T13:12:56.629Z,40.00
2019-06-26T13:15:26.247Z,39.30
2019-06-26T13:17:55.844Z,38.50
2019-06-26T13:20:25.447Z,38.60
2019-06-26T13:22:54.983Z,38.90
2019-06-26T13:25:24.611Z,40.00
2019-06-26T13:27:54.147Z,38.50
2019-06-26T13:30:26.805Z,38.40
2019-06-26T13:32:56.340Z,37.90
2019-06-26T13:35:25.943Z,38.90
2019-06-26T13:37:55.635Z,39.30
2019-06-26T13:40:25.179Z,38.80
2019-06-26T13:42:55.778Z,38.90
2019-06-26T13:45:25.285Z,38.50
2019-06-26T13:47:54.842Z,38.90
2019-06-26T13:50:24.517Z,39.40
2019-06-26T13:52:54.066Z,38.50
2019-06-26T13:55:23.686Z,39.40
2019-06-26T13:57:53.294Z,38.40
2019-06-26T14:00:23.162Z,38.30
2019-06-26T14:02:52.766Z,38.40
2019-06-26T14:05:22.528Z,38.80
2019-06-26T14:07:52.175Z,37.80
2019-06-26T14:10:22.027Z,38.10
2019-06-26T14:12:51.629Z,38.10
2019-06-26T14:15:21.408Z,38.30
2019-06-26T14:17:50.991Z,38.30
2019-06-26T14:20:20.663Z,39.20
2019-06-26T14:22:53.102Z,38.80
2019-06-26T14:25:22.712Z,38.60
2019-06-26T14:27:52.227Z,37.80
2019-06-26T14:30:22.808Z,37.60
2019-06-26T14:32:52.429Z,38.70
2019-06-26T14:35:22.010Z,38.60
2019-06-26T14:37:51.573Z,39.10
2019-06-26T14:40:21.263Z,39.10
2019-06-26T14:42:50.870Z,38.30
2019-06-26T14:45:20.556Z,37.60
2019-06-26T14:47:50.080Z,38.60
2019-06-26T14:50:19.737Z,37.70
2019-06-26T14:52:49.290Z,36.10
2019-06-26T14:55:19.079Z,36.40
2019-06-26T14:57:48.619Z,37.60
2019-06-26T15:00:18.725Z,38.20
2019-06-26T15:02:48.243Z,38.60
2019-06-26T15:05:17.930Z,38.80
2019-06-26T15:07:50.068Z,38.80
2019-06-26T15:10:18.174Z,39.40
2019-06-26T15:12:47.630Z,39.40
2019-06-26T15:15:17.815Z,39.50
2019-06-26T15:17:47.432Z,38.90
2019-06-26T15:20:17.320Z,39.60
2019-06-26T15:22:46.929Z,39.50
2019-06-26T15:25:17.690Z,40.10
2019-06-26T15:27:47.200Z,40.90
2019-06-26T15:30:17.487Z,41.90
2019-06-26T15:32:48.438Z,43.40
2019-06-26T15:35:18.035Z,43.40
2019-06-26T15:37:47.584Z,43.40
2019-06-26T15:40:17.285Z,43.80
2019-06-26T15:42:48.959Z,44.10
2019-06-26T15:45:20.714Z,45.10
2019-06-26T15:47:49.330Z,44.90
2019-06-26T15:50:19.080Z,44.40
2019-06-26T15:52:48.705Z,45.10
2019-06-26T15:55:18.323Z,45.20
2019-06-26T15:57:47.888Z,45.60
2019-06-26T16:00:17.776Z,45.50
2019-06-26T16:02:47.322Z,44.90
2019-06-26T16:05:17.001Z,45.40
2019-06-26T16:07:46.616Z,45.90
2019-06-26T16:10:16.315Z,46.20
2019-06-26T16:12:45.866Z,46.60
2019-06-26T16:15:15.565Z,46.00
2019-06-26T16:17:46.902Z,46.50
2019-06-26T16:20:18.075Z,46.80
2019-06-26T16:22:47.594Z,46.70
2019-06-26T16:25:17.233Z,46.80
2019-06-26T16:27:46.839Z,46.40
2019-06-26T16:30:17.385Z,46.80
2019-06-26T16:32:46.932Z,47.20
2019-06-26T16:35:16.639Z,47.50
2019-06-26T16:37:46.180Z,47.80
2019-06-26T16:40:15.869Z,47.40
2019-06-26T16:42:45.431Z,47.80
2019-06-26T16:45:15.538Z,48.00
2019-06-26T16:47:45.161Z,48.00
2019-06-26T16:50:15.294Z,48.10
2019-06-26T16:52:49.770Z,48.80
2019-06-26T16:55:16.025Z,48.60
2019-06-26T16:57:45.842Z,49.00
2019-06-26T17:00:15.839Z,48.90
2019-06-26T17:02:45.376Z,49.50
2019-06-26T17:05:15.283Z,49.80
2019-06-26T17:07:44.901Z,50.00
2019-06-26T17:10:14.926Z,49.90
2019-06-26T17:12:45.545Z,49.90
2019-06-26T17:15:15.339Z,49.80
2019-06-26T17:17:44.928Z,50.50
2019-06-26T17:20:14.681Z,50.60
2019-06-26T17:22:44.380Z,50.70
2019-06-26T17:25:14.372Z,50.80
2019-06-26T17:27:43.965Z,51.00
2019-06-26T17:30:13.646Z,51.60
2019-06-26T17:32:43.206Z,52.20
2019-06-26T17:35:15.915Z,51.90
2019-06-26T17:37:45.529Z,52.10
2019-06-26T17:40:16.252Z,52.20
2019-06-26T17:42:45.785Z,52.20
2019-06-26T17:45:15.545Z,52.20
2019-06-26T17:47:45.181Z,51.80
2019-06-26T17:50:15.163Z,52.00
2019-06-26T17:52:44.798Z,52.20
2019-06-26T17:55:14.486Z,52.10
2019-06-26T17:57:47.418Z,51.70
2019-06-26T18:00:16.046Z,51.70
2019-06-26T18:02:45.651Z,51.70
2019-06-26T18:05:15.270Z,51.70
2019-06-26T18:07:44.811Z,52.10
2019-06-26T18:10:14.487Z,51.60
2019-06-26T18:12:45.111Z,52.00
2019-06-26T18:15:14.814Z,52.30
2019-06-26T18:17:44.336Z,52.60
2019-06-26T18:20:14.022Z,52.40
2019-06-26T18:22:43.553Z,53.10
2019-06-26T18:25:16.478Z,52.30
2019-06-26T18:27:43.931Z,52.40
2019-06-26T18:30:13.629Z,52.40
2019-06-26T18:32:43.164Z,53.00
2019-06-26T18:35:12.770Z,52.90
2019-06-26T18:37:42.302Z,52.80
2019-06-26T18:40:13.660Z,52.60
2019-06-26T18:42:43.207Z,52.50
2019-06-26T18:45:12.978Z,52.60
2019-06-26T18:47:42.506Z,52.90
2019-06-26T18:50:12.443Z,52.80
2019-06-26T18:52:42.059Z,53.30
2019-06-26T18:55:11.758Z,53.10
2019-06-26T18:57:41.287Z,53.50
2019-06-26T19:00:11.199Z,53.30
2019-06-26T19:02:40.750Z,53.80
2019-06-26T19:05:10.408Z,53.90
2019-06-26T19:07:40.018Z,53.80
2019-06-26T19:10:10.489Z,54.30
2019-06-26T19:12:40.203Z,54.30
2019-06-26T19:15:09.875Z,54.80
2019-06-26T19:17:42.460Z,54.90
2019-06-26T19:20:11.424Z,55.10
2019-06-26T19:22:47.714Z,55.20
2019-06-26T19:25:17.594Z,55.10
2019-06-26T19:27:47.145Z,55.30
2019-06-26T19:30:17.132Z,55.40
2019-06-26T19:32:46.816Z,55.50
2019-06-26T19:35:20.255Z,55.70
2019-06-26T19:37:47.720Z,55.90
2019-06-26T19:40:17.412Z,56.20
2019-06-26T19:42:47.008Z,56.40
2019-06-26T19:45:16.904Z,56.60
2019-06-26T19:47:46.434Z,57.90
2019-06-26T19:50:16.229Z,58.90
2019-06-26T19:52:45.843Z,59.50
2019-06-26T19:55:15.770Z,59.80
2019-06-26T19:57:45.402Z,61.60
2019-06-26T20:00:15.518Z,60.90
2019-06-26T20:02:45.207Z,61.00
2019-06-26T20:05:15.237Z,62.90
2019-06-26T20:07:44.785Z,65.20
2019-06-26T20:10:15.390Z,67.00
2019-06-26T20:12:45.000Z,68.20
2019-06-26T20:15:14.698Z,69.30
2019-06-26T20:17:44.230Z,68.90
2019-06-26T20:20:14.118Z,67.90
2019-06-26T20:22:43.670Z,69.00
2019-06-26T20:25:13.572Z,69.80
2019-06-26T20:27:43.219Z,69.90
2019-06-26T20:30:14.605Z,69.60
2019-06-26T20:32:44.204Z,69.00
2019-06-26T20:35:13.881Z,69.20
2019-06-26T20:37:43.427Z,68.70
2019-06-26T20:40:13.315Z,68.50
2019-06-26T20:42:42.925Z,68.70
2019-06-26T20:45:14.123Z,68.00
2019-06-26T20:47:43.685Z,66.70
2019-06-26T20:50:13.573Z,66.00
2019-06-26T20:52:43.121Z,65.60
2019-06-26T20:55:12.810Z,66.10
2019-06-26T20:57:42.346Z,66.70
2019-06-26T21:00:12.815Z,66.30
2019-06-26T21:02:42.432Z,67.30
2019-06-26T21:05:12.133Z,67.70
2019-06-26T21:07:41.766Z,68.10
2019-06-26T21:10:12.255Z,68.00
2019-06-26T21:12:41.964Z,68.10
2019-06-26T21:15:11.737Z,68.00
2019-06-26T21:17:41.287Z,68.30
2019-06-26T21:20:11.825Z,67.90
2019-06-26T21:22:41.495Z,67.80
2019-06-26T21:25:18.907Z,67.80
2019-06-26T21:27:42.221Z,68.00
2019-06-26T21:30:12.426Z,68.40
2019-06-26T21:32:42.052Z,68.80
2019-06-26T21:35:12.038Z,68.70
2019-06-26T21:37:41.625Z,69.10
2019-06-26T21:40:11.348Z,69.90
2019-06-26T21:42:40.894Z,69.30
2019-06-26T21:45:10.567Z,69.40
2019-06-26T21:47:40.203Z,70.00
2019-06-26T21:50:10.426Z,70.30
2019-06-26T21:52:39.973Z,69.90
2019-06-26T21:55:09.582Z,70.30
2019-06-26T21:57:57.287Z,70.50
2019-06-26T22:00:45.119Z,70.30
2019-06-26T22:03:32.809Z,70.80
2019-06-26T22:06:12.661Z,70.80
2019-06-26T22:08:46.709Z,70.10
2019-06-26T22:11:18.006Z,70.00
2019-06-26T22:13:47.617Z,70.50
2019-06-26T22:16:17.310Z,70.80
2019-06-26T22:18:46.993Z,70.70
2019-06-26T22:21:16.526Z,71.10
2019-06-26T22:23:46.086Z,71.20
2019-06-26T22:26:15.691Z,71.00
2019-06-26T22:28:45.335Z,71.10
2019-06-26T22:31:14.890Z,71.70
2019-06-26T22:33:44.498Z,71.60
2019-06-26T22:36:14.039Z,71.60
2019-06-26T22:38:43.576Z,72.00
2019-06-26T22:41:13.193Z,72.30
2019-06-26T22:43:42.802Z,73.00
2019-06-26T22:46:12.371Z,73.50
2019-06-26T22:48:41.881Z,73.60
2019-06-26T22:51:12.561Z,73.50
2019-06-26T22:53:43.171Z,74.50
2019-06-26T22:56:12.778Z,75.00
2019-06-26T22:58:43.486Z,74.30
2019-06-26T23:01:13.035Z,74.90
2019-06-26T23:03:42.649Z,75.20
2019-06-26T23:06:12.213Z,75.40
2019-06-26T23:08:41.832Z,75.80
2019-06-26T23:11:11.514Z,76.20
2019-06-26T23:13:41.179Z,75.90
2019-06-26T23:16:10.791Z,75.50
2019-06-26T23:18:40.335Z,75.50
2019-06-26T23:21:10.815Z,75.40
2019-06-26T23:23:41.429Z,74.70
2019-06-26T23:26:23.439Z,75.10
2019-06-26T23:28:42.211Z,75.50
2019-06-26T23:31:11.783Z,75.50
2019-06-26T23:33:41.291Z,75.70
2019-06-26T23:36:10.906Z,76.20
2019-06-26T23:38:40.526Z,76.10
2019-06-26T23:41:10.069Z,76.20
2019-06-26T23:43:39.598Z,76.50
2019-06-26T23:46:10.211Z,76.80
2019-06-26T23:48:39.809Z,77.00
2019-06-26T23:51:09.362Z,77.00
2019-06-26T23:53:38.901Z,78.00
2019-06-26T23:56:08.459Z,78.40
2019-06-26T23:58:38.063Z,79.10
